Decoded Metar for KIZG (FRYEBURG in ME, USA) (IATA:IZG) | Meteo·Mobile Aviation Weather
aviador You're here:

KIZG Decoded Metar

FRYEBURG in ME, USA
Report Time2018-09-21 02:54:00
UTC Time2018-09-21 03:50:17
Flight Rules vfr VFR
Wind170° at 03 kt
W.Decomp.*RWY 14: 2.0 kt HW 2.2 kt RCW
W.Rank170° ranks 24
Current wind is below 170° avg. (4.8)
Visibility9999 m
Phenomena:N/A
Clouds:Scattered 022 Hf
CeilingNone
Temp12°C (ISA -2)
Dew Point12°C (100% RH)
AAT11.5°C
QNH1027 hPa
Density Alt-92 ft
Elevation443 ft
Report Wrong Elevation
Raw Report
KIZG 210254Z AUTO 17003KT 10SM SCT022 12/12 A3032 RMK AO2 SLP267
T01220117 53007=

Extra information for KIZG:More info

Metar Taf Metar & Taf Last 4 Metars F.Rules Stats Wind Profile Meteogram Temp Stats Airport Information Weather charts Add Link Nearby VenuesMetar ALERT Operation Metar Decoded Social comments

AIRNAV info for KIZG